Terminal Aerodrome Forecast
Issued by NWS

Home | Current Version | Previous Version | Graphics & Text | Print | Product List | Glossary On
Versions: 1 2 3 4 5 6 7 8 9 10 11 12 13 14 15 16
000
FTUS43 KGRB 261734
TAFMTW
TAF
KMTW 261734Z 2618/2718 33007KT P6SM BKN040
     FM262100 34007KT P6SM SCT040
     FM270100 VRB03KT P6SM SKC
     FM270800 00000KT 3SM BR SKC
      TEMPO 2709/2712 3/4SM BR
     FM271300 17003KT P6SM SKC=

USA.gov is the U.S. government's official web portal to all federal, state and local government web resources and services.